KOCW

Washington-Warren Airport

Washington, North Carolina, USA
METAR KOCW 252155Z AUTO 19005KT 10SM SCT040 SCT050 BKN070 28/20 A3000 RMK AO2 T02820196
Observed Flight Rules
May-25 @ 21:55 UTC (35 minutes ago) Visual Flight Rules
Wind Visibility Clouds
190° at 5 knots 10 miles
  • Scattered at 4,000' AGL
  • Scattered at 5,000' AGL
  • Broken at 7,000' AGL
Temperatures Readings
Current 28°C / 82°F
Dewpoint 20°C / 68°F
Humidity 62%
Altimeter 30" Hg
Pressure 1016 hPa
Elevation 12
METAR KOCW 252155Z AUTO 19005KT 10SM SCT040 SCT050 BKN070 28/20 A3000 RMK AO2 T02820196
Observed Flight Rules
May-25 @ 21:55 UTC
(35 minutes ago)
VFR
Wind Visibility
190° at 5 knots 10 miles
Clouds
  • Scattered at 4,000' AGL
  • Scattered at 5,000' AGL
  • Broken at 7,000' AGL
Temperature Dewpoint
28°C / 82°F 20°C / 68°F
Humidity Altimeter Pressure
62% 30" Hg 1016 hPa